METAR AND TAF INFORMATION
METAR FOR TDCF
ADDS - METARS form results

(2135 UTC 20 May 2019)
Data provider http://aviationweather.gov/metar/data/
 
METAR text: TDCF 202100Z 10007KT 9999 FEW022 29/20 Q1012
Conditions at: TDCF (CANEFIELD AIRPOR, DM) observed 2100 UTC 20 May 2019
Temperature: 29.0°C (84°F)
Dewpoint: 20.0°C (68°F) [RH = 58%]
Pressure (altimeter): 29.88 inches Hg (1012.0 mb)
Winds: from the E (100 degrees) at 8 MPH (7 knots; 3.6 m/s)
Visibility: 6 or more miles (10+ km)
Ceiling: at least 12,000 feet AGL
Clouds: few clouds at 2200 feet AGL
Weather: no significant weather observed at this time

 AIRPORT MAP

 RUNWAY INFORMATION
Runway 01 Runway length 3130 ft Runway width 75 ft
Runway elevation 13 ft Runway displaced threshold 475 ft Runway heading 356
Runway 19 Runway length 3130 ft Runway width 75 ft
Runway elevation 13 ft Runway displaced threshold 0 ft Runway heading 176

 AIRPORT FREQUENCIES
Type TWR Name TWR Frequency 118.7 MHZ

 AIRPORT NEAR NAVIGATION AIDS
Type NDB Name Canefield Frequency 260 KHZ



Powered by Heron Airways VA. All Rights Reserved © 2009 [v2.6.2]